Bryan Durbin 16:00 row

3,145

Meters

16:00.0

Time

2:32.6

Pace

112

Calories

Average Watts98
Calories Per Hour638
Stroke Rate17
Stroke Count209
Drag Factor117

April 27, 2026 11:46:00

Workout
RowErg

Workout Type
Fixed Time

Weight Class
Lwt

Verified
Yes

Entered
ErgData iOS

Splits

Time Meters Pace Watts Cal/Hr Cal S/M
16:00.0 3,145 2:32.6 98 638 112 17
0:20.0 69 2:24.9 115 695 3 21
0:40.0 66 2:31.5 101 646 3 18
1:00.0 65 2:33.8 96 630 3 15
1:20.0 65 2:33.8 96 630 3 18
1:40.0 64 2:36.2 92 615 3 18
2:00.0 66 2:31.5 101 646 3 15
2:20.0 66 2:31.5 101 646 3 18
2:40.0 64 2:36.2 92 615 3 15
3:00.0 62 2:41.2 83 587 3 15
3:20.0 63 2:38.7 88 601 3 18
3:40.0 62 2:41.2 83 587 3 15
4:00.0 60 2:46.6 76 560 3 15
4:20.0 62 2:41.2 83 587 3 12
4:40.0 57 2:55.4 65 523 2 15
5:00.0 60 2:46.6 76 560 3 15
5:20.0 61 2:43.9 79 573 3 18
5:40.0 61 2:43.9 79 573 3 15
6:00.0 61 2:43.9 79 573 3 12
6:20.0 62 2:41.2 83 587 3 15
6:40.0 64 2:36.2 92 615 3 15
7:00.0 64 2:36.2 92 615 3 12
7:20.0 69 2:24.9 115 695 3 15
7:40.0 67 2:29.2 105 662 3 12
8:00.0 66 2:31.5 101 646 3 15
8:20.0 65 2:33.8 96 630 3 15
8:40.0 67 2:29.2 105 662 3 12
9:00.0 57 2:55.4 65 523 2 15
9:20.0 61 2:43.9 79 573 3 18
9:40.0 67 2:29.2 105 662 3 21
10:00.0 72 2:18.8 131 749 4 24
10:20.0 76 2:11.5 154 828 4 24
10:40.0 82 2:01.9 193 964 5 30
11:00.0 89 1:52.3 247 1149 6 33
11:20.0 94 1:46.3 291 1300 7 39
11:40.0 48 3:28.3 39 433 2 18
12:00.0 49 3:24.0 41 441 2 18
12:20.0 54 3:05.1 55 489 2 18
12:40.0 65 2:33.8 96 630 3 18
13:00.0 64 2:36.2 92 615 3 21
13:20.0 60 2:46.6 76 560 3 18
13:40.0 58 2:52.4 68 535 2 21
14:00.0 58 2:52.4 68 535 2 18
14:20.0 66 2:31.5 101 646 3 21
14:40.0 71 2:20.8 125 731 4 21
15:00.0 73 2:16.9 136 768 4 15
15:20.0 72 2:18.8 131 749 4 18
15:40.0 75 2:13.3 148 808 4 18
16:00.0 77 2:09.8 160 849 4 15

Click and drag on the graph to zoom in on a section.

Workout Graph

Loading data.